.
WxDataArchive / Data Records for 2014-06-30
2014-06-29 June 2014 2014-07-01

Data Records for Monday, 30 June 2014

Time	Temp	Chill	HIndex	Humid	Dewpt	 Wind 	HiWind	WindDir	Rain 	Barom
-----	----	-----	------	-----	-----	------	------	-------	-----	-----
00:00	75.3	75.3	75.6	83	69.8	0	0	---	0.00	29.914 
00:05	75.3	75.3	75.5	84	70.1	0	1	315	0.00	29.914 
00:10	75.1	75.1	75.2	84	69.9	0	0	---	0.00	29.914 
00:15	74.9	74.9	74.9	84	69.7	0	1	315	0.00	29.913 
00:20	74.9	74.9	74.9	85	70.1	0	2	315	0.00	29.913 
00:25	74.7	74.7	74.7	85	69.9	0	1	315	0.00	29.913 
00:30	74.6	74.6	74.6	85	69.8	0	0	---	0.00	29.912 
00:35	74.6	74.6	74.6	86	70.1	0	1	315	0.00	29.912 
00:40	74.4	74.4	74.4	86	69.9	0	1	315	0.00	29.912 
00:45	74.4	74.4	74.4	86	69.9	0	1	315	0.00	29.910 
00:50	74.4	74.4	74.4	86	69.9	0	1	315	0.00	29.910 
00:55	74.4	74.4	74.4	86	69.9	0	0	---	0.00	29.910 
01:00	74.2	74.2	74.2	86	69.7	0	0	---	0.00	29.903 
01:05	74.2	74.2	74.2	86	69.7	0	1	315	0.00	29.903 
01:10	74.2	74.2	74.2	86	69.7	0	0	---	0.00	29.903 
01:15	74.0	74.0	74.0	86	69.5	0	0	---	0.00	29.908 
01:20	74.0	74.0	74.0	86	69.5	0	1	315	0.00	29.908 
01:25	74.0	74.0	74.0	86	69.5	0	1	315	0.00	29.908 
01:30	73.9	73.9	73.9	87	69.8	0	1	315	0.00	29.909 
01:35	73.9	73.9	73.9	87	69.8	0	1	315	0.00	29.909 
01:40	73.9	73.9	73.9	87	69.8	0	1	315	0.00	29.909 
01:45	73.9	73.9	73.9	87	69.8	0	3	315	0.00	29.922 
01:50	73.9	73.9	73.9	87	69.8	0	2	315	0.00	29.922 
01:55	73.9	73.9	73.9	87	69.8	0	0	---	0.00	29.922 
02:00	73.7	73.7	73.7	87	69.6	0	2	315	0.00	29.911 
02:05	73.7	73.7	73.7	87	69.6	0	1	315	0.00	29.911 
02:10	73.7	73.7	73.7	87	69.6	0	1	315	0.00	29.911 
02:15	73.5	73.5	73.5	87	69.4	0	1	315	0.00	29.893 
02:20	73.5	73.5	73.5	87	69.4	0	1	315	0.00	29.893 
02:25	73.3	73.3	73.3	87	69.2	0	1	315	0.00	29.893 
02:30	73.3	73.3	73.3	87	69.2	0	0	---	0.00	29.901 
02:35	73.2	73.2	73.2	88	69.4	0	1	315	0.00	29.901 
02:40	73.2	73.2	73.2	88	69.4	0	0	---	0.00	29.901 
02:45	73.0	73.0	73.0	88	69.2	0	0	---	0.00	29.912 
02:50	73.0	73.0	73.0	88	69.2	0	1	315	0.00	29.912 
02:55	73.0	73.0	73.0	88	69.2	0	0	---	0.00	29.912 
03:00	72.8	72.8	72.8	88	69.0	0	0	---	0.00	29.921 
03:05	72.8	72.8	72.8	88	69.0	0	1	315	0.00	29.921 
03:10	72.8	72.8	72.8	88	69.0	0	0	---	0.00	29.921 
03:15	72.7	72.7	72.7	88	68.9	0	0	---	0.00	29.926 
03:20	72.7	72.7	72.7	88	68.9	0	0	---	0.00	29.926 
03:25	72.7	72.7	72.7	88	68.9	0	0	---	0.00	29.926 
03:30	72.7	72.7	72.7	88	68.9	0	1	315	0.00	29.935 
03:35	72.7	72.7	72.7	88	68.9	0	1	315	0.00	29.935 
03:40	72.5	72.5	72.5	88	68.7	0	0	---	0.00	29.935 
03:45	72.5	72.5	72.5	88	68.7	0	0	---	0.00	29.935 
03:50	72.5	72.5	72.5	88	68.7	0	0	---	0.00	29.935 
03:55	72.5	72.5	72.5	88	68.7	0	1	315	0.00	29.935 
04:00	72.5	72.5	72.5	88	68.7	0	1	315	0.00	29.938 
04:05	72.5	72.5	72.5	88	68.7	0	1	315	0.00	29.938 
04:10	72.5	72.5	72.5	88	68.7	0	1	315	0.00	29.938 
04:15	72.5	72.5	72.5	88	68.7	0	0	---	0.00	29.928 
04:20	72.3	72.3	72.3	88	68.5	0	1	315	0.00	29.928 
04:25	72.3	72.3	72.3	88	68.5	0	0	---	0.00	29.928 
04:30	72.3	72.3	72.3	88	68.5	0	2	315	0.00	29.922 
04:35	72.3	72.3	72.3	88	68.5	0	0	---	0.00	29.922 
04:40	72.1	72.1	72.1	88	68.3	0	1	315	0.00	29.922 
04:45	72.1	72.1	72.1	88	68.3	0	0	---	0.00	29.921 
04:50	72.0	72.0	72.0	88	68.2	0	0	---	0.00	29.921 
04:55	72.0	72.0	72.0	88	68.2	0	0	---	0.00	29.921 
05:00	71.8	71.8	71.8	89	68.4	0	0	---	0.00	29.923 
05:05	71.8	71.8	71.8	89	68.4	0	0	---	0.00	29.923 
05:10	71.8	71.8	71.8	89	68.4	0	0	---	0.00	29.923 
05:15	71.6	71.6	71.6	89	68.2	0	0	---	0.00	29.944 
05:20	71.6	71.6	71.6	89	68.2	0	0	---	0.00	29.944 
05:25	71.6	71.6	71.6	89	68.2	0	0	---	0.00	29.944 
05:30	71.6	71.6	71.6	89	68.2	0	0	---	0.00	29.947 
05:35	71.5	71.5	71.5	90	68.4	0	0	---	0.00	29.947 
05:40	71.5	71.5	71.5	90	68.4	0	0	---	0.00	29.947 
05:45	71.5	71.5	71.5	90	68.4	0	0	---	0.00	29.948 
05:50	71.5	71.5	71.5	90	68.4	0	0	---	0.00	29.948 
05:55	71.5	71.5	71.5	90	68.4	0	0	---	0.00	29.948 
06:00	71.5	71.5	71.5	90	68.4	0	0	---	0.00	29.943 
06:05	71.3	71.3	71.3	90	68.2	0	0	---	0.00	29.943 
06:10	71.1	71.1	71.1	90	68.0	0	0	---	0.00	29.943 
06:15	71.1	71.1	71.1	90	68.0	0	0	---	0.00	29.939 
06:20	70.9	70.9	70.9	90	67.8	0	0	---	0.00	29.939 
06:25	70.8	70.8	70.8	91	68.0	0	0	---	0.00	29.939 
06:30	70.8	70.8	70.8	91	68.0	0	0	---	0.00	29.933 
06:35	70.8	70.8	70.8	91	68.0	0	0	---	0.00	29.933 
06:40	70.8	70.8	70.8	91	68.0	0	0	---	0.00	29.933 
06:45	70.8	70.8	70.8	91	68.0	0	0	---	0.00	29.932 
06:50	70.8	70.8	70.8	91	68.0	0	0	---	0.00	29.932 
06:55	70.8	70.8	70.8	92	68.4	0	0	---	0.00	29.932 
07:00	70.8	70.8	70.8	92	68.4	0	0	---	0.00	29.941 
07:05	70.8	70.8	70.8	92	68.4	0	0	---	0.00	29.941 
07:10	70.8	70.8	70.8	92	68.4	0	0	---	0.00	29.941 
07:15	70.8	70.8	70.8	92	68.4	0	0	---	0.00	29.943 
07:20	70.9	70.9	70.9	92	68.5	0	0	---	0.00	29.943 
07:25	70.9	70.9	70.9	92	68.5	0	1	315	0.00	29.943 
07:30	70.9	70.9	70.9	92	68.5	0	1	315	0.00	29.929 
07:35	71.1	71.1	71.1	92	68.7	0	1	315	0.00	29.929 
07:40	71.1	71.1	71.1	92	68.7	0	2	22	0.00	29.929 
07:45	71.1	71.1	71.1	92	68.7	0	1	22	0.00	29.906 
07:50	71.3	71.3	71.3	92	68.8	0	2	0	0.00	29.906 
07:55	71.3	71.3	71.3	92	68.8	0	1	0	0.00	29.906 
08:00	71.3	71.3	71.3	92	68.8	0	1	0	0.00	29.905 
08:05	71.5	71.5	71.5	92	69.0	0	2	0	0.00	29.905 
08:10	71.5	71.5	71.5	92	69.0	0	2	90	0.00	29.905 
08:15	71.6	71.6	71.6	92	69.1	0	2	270	0.00	29.899 
08:20	71.6	71.6	71.6	91	68.8	0	2	270	0.00	29.899 
08:25	71.8	71.8	71.8	91	69.0	0	2	158	0.00	29.899 
08:30	72.0	72.0	72.0	91	69.2	0	1	158	0.00	29.892 
08:35	72.1	72.1	72.1	90	69.0	1	3	225	0.00	29.892 
08:40	72.3	72.3	72.3	90	69.2	0	2	248	0.00	29.892 
08:45	72.5	72.5	72.5	89	69.1	1	3	338	0.00	29.880 
08:50	72.7	72.7	72.7	88	68.9	0	3	315	0.00	29.880 
08:55	72.8	72.8	72.8	88	69.0	1	5	270	0.00	29.880 
09:00	73.0	73.0	73.0	87	68.9	1	6	248	0.00	29.848 
09:05	73.0	73.0	73.0	87	68.9	1	4	68	0.00	29.848 
09:10	73.0	73.0	73.0	86	68.6	1	7	225	0.00	29.848 
09:15	73.0	73.0	73.0	86	68.6	1	5	270	0.00	29.856 
09:20	72.8	72.8	72.8	85	68.0	1	5	270	0.00	29.856 
09:25	73.0	73.0	73.0	85	68.2	1	4	248	0.00	29.856 
09:30	73.0	73.0	73.0	85	68.2	1	6	248	0.00	29.851 
09:35	73.0	73.0	73.0	85	68.2	1	4	248	0.00	29.851 
09:40	73.2	73.2	73.2	85	68.4	1	6	270	0.00	29.851 
09:45	73.5	73.5	73.5	85	68.7	1	5	270	0.00	29.833 
09:50	73.5	73.5	73.5	85	68.7	1	5	270	0.00	29.833 
09:55	73.7	73.7	73.7	85	68.9	1	4	90	0.00	29.833 
10:00	73.7	73.7	73.7	84	68.6	1	6	248	0.00	29.814 
10:05	73.9	73.9	73.9	85	69.1	1	6	270	0.00	29.814 
10:10	74.0	74.0	74.0	85	69.2	1	4	68	0.00	29.814 
10:15	74.2	74.2	74.2	84	69.0	2	7	248	0.00	29.821 
10:20	74.4	74.4	74.4	84	69.2	2	6	292	0.00	29.821 
10:25	74.4	74.4	74.4	84	69.2	1	5	315	0.00	29.821 
10:30	74.6	74.6	74.6	84	69.4	1	2	270	0.00	29.831 
10:35	74.6	74.6	74.6	84	69.4	1	4	270	0.00	29.831 
10:40	74.6	74.6	74.6	84	69.4	0	3	270	0.00	29.831 
10:45	74.4	74.4	74.4	84	69.2	1	5	292	0.00	29.856 
10:50	74.4	74.4	74.4	84	69.2	1	6	292	0.00	29.856 
10:55	74.4	74.4	74.4	84	69.2	0	2	338	0.00	29.856 
11:00	74.2	74.2	74.2	84	69.0	1	4	270	0.00	29.861 
11:05	74.2	74.2	74.2	84	69.0	0	3	270	0.00	29.861 
11:10	74.2	74.2	74.2	84	69.0	0	1	270	0.00	29.861 
11:15	74.2	74.2	74.2	84	69.0	1	6	248	0.00	29.860 
11:20	74.2	74.2	74.2	84	69.0	1	4	248	0.00	29.860 
11:25	74.2	74.2	74.2	85	69.4	0	1	248	0.00	29.860 
11:30	74.4	74.4	74.4	84	69.2	0	3	248	0.00	29.865 
11:35	74.6	74.6	74.6	85	69.8	0	2	315	0.00	29.865 
11:40	74.7	74.7	74.7	84	69.5	1	4	68	0.00	29.865 
11:45	74.9	74.9	74.9	84	69.7	0	5	90	0.00	29.876 
11:50	74.9	74.9	74.9	84	69.7	0	2	90	0.00	29.876 
11:55	74.9	74.9	74.9	84	69.7	0	3	292	0.00	29.876 
12:00	74.9	74.9	74.9	84	69.7	0	1	292	0.00	29.857 
12:05	75.3	75.3	75.5	84	70.1	1	5	292	0.00	29.857 
12:10	75.6	75.6	76.0	84	70.4	0	2	68	0.00	29.857 
12:15	75.8	75.8	76.4	83	70.3	1	3	338	0.00	29.850 
12:20	76.1	76.1	76.9	83	70.5	0	3	68	0.00	29.850 
12:25	76.5	76.5	77.7	82	70.6	1	4	338	0.00	29.850 
12:30	76.8	76.8	78.2	82	70.9	0	2	338	0.00	29.851 
12:35	77.2	77.2	78.9	80	70.5	1	6	68	0.00	29.851 
12:40	77.4	77.4	79.3	79	70.4	1	3	68	0.00	29.851 
12:45	77.6	77.6	79.6	79	70.6	1	4	45	0.00	29.840 
12:50	77.6	77.6	79.6	78	70.2	2	4	22	0.00	29.840 
12:55	77.7	77.7	79.7	78	70.3	1	6	112	0.00	29.840 
13:00	77.7	77.7	79.7	78	70.3	1	5	68	0.00	29.835 
13:05	77.7	77.7	79.8	79	70.7	1	5	292	0.00	29.835 
13:10	78.1	78.1	80.5	79	71.0	1	5	270	0.00	29.835 
13:15	78.1	78.1	80.4	77	70.3	1	9	270	0.00	29.848 
13:20	78.3	78.3	80.8	78	70.9	1	5	68	0.00	29.848 
13:25	78.6	78.6	81.3	78	71.1	1	3	22	0.00	29.848 
13:30	79.0	79.0	82.0	77	71.2	1	3	292	0.00	29.844 
13:35	79.2	79.2	82.3	77	71.3	1	4	292	0.00	29.844 
13:40	79.2	79.2	82.3	77	71.3	0	4	292	0.00	29.844 
13:45	78.8	78.8	81.5	76	70.6	1	4	292	0.00	29.848 
13:50	78.6	78.6	81.2	77	70.8	1	3	338	0.00	29.848 
13:55	78.6	78.6	81.2	77	70.8	1	3	248	0.00	29.848 
14:00	78.6	78.6	81.3	78	71.1	0	4	292	0.00	29.846 
14:05	78.5	78.5	81.1	78	71.1	0	4	68	0.00	29.846 
14:10	78.5	78.5	81.2	79	71.4	0	1	315	0.00	29.846 
14:15	78.6	78.6	81.4	79	71.5	1	3	270	0.00	29.832 
14:20	79.0	79.0	82.0	78	71.5	1	3	292	0.00	29.832 
14:25	79.4	79.4	82.7	77	71.5	1	3	315	0.00	29.832 
14:30	79.8	79.8	83.6	78	72.3	1	4	112	0.00	29.816 
14:35	79.9	79.9	83.5	76	71.6	1	5	68	0.00	29.816 
14:40	80.3	80.3	84.3	76	72.0	0	3	45	0.00	29.816 
14:45	80.5	80.5	84.5	75	71.8	1	6	292	0.00	29.801 
14:50	80.5	80.5	84.4	74	71.4	1	7	45	0.00	29.801 
14:55	80.7	80.7	84.7	74	71.6	1	4	45	0.00	29.801 
15:00	81.1	81.1	85.5	74	72.0	1	4	112	0.00	29.789 
15:05	81.2	81.2	85.2	71	70.9	2	6	90	0.00	29.789 
15:10	81.4	81.4	85.9	73	71.9	1	3	90	0.00	29.789 
15:15	81.6	81.6	86.1	72	71.7	1	5	0	0.00	29.791 
15:20	81.8	81.8	86.3	71	71.5	1	4	90	0.00	29.791 
15:25	82.0	82.0	86.7	71	71.6	1	5	90	0.00	29.791 
15:30	82.0	82.0	86.4	70	71.2	2	9	90	0.00	29.790 
15:35	82.2	82.2	87.3	72	72.2	2	5	90	0.00	29.790 
15:40	82.4	82.4	87.7	72	72.4	1	5	90	0.00	29.790 
15:45	82.8	82.8	88.5	72	72.8	1	8	90	0.00	29.795 
15:50	82.8	82.8	88.5	72	72.8	1	5	0	0.00	29.795 
15:55	82.6	82.6	87.8	71	72.2	1	3	315	0.00	29.795 
16:00	83.0	83.0	88.7	71	72.6	1	7	90	0.00	29.804 
16:05	83.0	83.0	88.7	71	72.6	1	3	90	0.00	29.804 
16:10	83.2	83.2	88.5	69	71.9	1	4	270	0.00	29.804 
16:15	83.0	83.0	88.1	69	71.8	1	4	292	0.00	29.811 
16:20	82.8	82.8	88.5	72	72.8	1	4	315	0.00	29.811 
16:25	82.6	82.6	87.6	70	71.8	1	3	315	0.00	29.811 
16:30	82.2	82.2	87.0	71	71.8	0	2	338	0.00	29.804 
16:35	82.2	82.2	87.8	74	73.1	0	4	90	0.00	29.804 
16:40	83.0	83.0	89.2	73	73.4	1	5	90	0.00	29.804 
16:45	83.2	83.2	88.8	70	72.4	1	3	90	0.00	29.796 
16:50	82.8	82.8	88.0	70	72.0	0	2	90	0.00	29.796 
16:55	82.8	82.8	88.5	72	72.8	0	1	90	0.00	29.796 
17:00	82.6	82.6	87.1	68	70.9	0	2	90	0.00	29.794 
17:05	82.4	82.4	86.7	68	70.8	0	3	90	0.00	29.794 
17:10	82.6	82.6	87.3	69	71.4	1	4	248	0.00	29.794 
17:15	82.8	82.8	87.5	68	71.1	0	3	68	0.00	29.783 
17:20	82.8	82.8	87.7	69	71.6	1	3	68	0.00	29.783 
17:25	82.6	82.6	87.1	68	70.9	1	5	90	0.00	29.783 
17:30	82.6	82.6	86.9	67	70.5	1	3	68	0.00	29.777 
17:35	83.0	83.0	88.1	69	71.8	0	2	68	0.00	29.777 
17:40	83.2	83.2	87.7	66	70.6	1	3	68	0.00	29.777 
17:45	83.6	83.6	89.0	68	71.9	1	3	315	0.00	29.779 
17:50	83.4	83.4	88.1	66	70.8	1	3	338	0.00	29.779 
17:55	83.4	83.4	88.6	68	71.7	0	2	315	0.00	29.779 
18:00	83.4	83.4	88.6	68	71.7	0	2	315	0.00	29.792 
18:05	83.0	83.0	87.6	67	70.9	1	3	270	0.00	29.792 
18:10	82.8	82.8	87.5	68	71.1	1	4	0	0.00	29.792 
18:15	82.6	82.6	87.1	68	70.9	0	3	135	0.00	29.787 
18:20	82.2	82.2	86.6	69	71.0	0	1	135	0.00	29.787 
18:25	82.2	82.2	86.8	70	71.4	0	2	135	0.00	29.787 
18:30	82.0	82.0	86.4	70	71.2	0	3	68	0.00	29.788 
18:35	81.6	81.6	85.5	69	70.4	0	4	45	0.00	29.788 
18:40	81.6	81.6	85.7	70	70.8	0	3	270	0.00	29.788 
18:45	81.4	81.4	85.1	69	70.2	1	4	292	0.00	29.785 
18:50	81.6	81.6	85.7	70	70.8	0	2	112	0.00	29.785 
18:55	81.6	81.6	85.7	70	70.8	0	2	112	0.00	29.785 
19:00	81.4	81.4	85.3	70	70.7	1	3	112	0.00	29.783 
19:05	81.2	81.2	85.2	71	70.9	1	4	68	0.00	29.783 
19:10	81.2	81.2	85.0	70	70.5	0	3	68	0.00	29.783 
19:15	81.2	81.2	85.3	72	71.3	0	1	68	0.00	29.774 
19:20	81.1	81.1	84.8	70	70.4	1	3	68	0.00	29.774 
19:25	80.9	80.9	84.5	70	70.2	1	3	68	0.00	29.774 
19:30	80.7	80.7	84.3	71	70.4	0	2	68	0.00	29.774 
19:35	80.5	80.5	84.1	72	70.6	0	2	68	0.00	29.774 
19:40	80.5	80.5	84.1	72	70.6	1	3	68	0.00	29.774 
19:45	80.1	80.1	83.2	71	69.8	0	2	68	0.00	29.776 
19:50	79.9	79.9	82.7	69	68.8	0	1	68	0.00	29.776 
19:55	79.6	79.6	82.2	69	68.5	0	2	68	0.00	29.776 
20:00	79.4	79.4	81.9	69	68.3	0	1	68	0.00	29.786 
20:05	79.2	79.2	81.6	69	68.1	0	2	270	0.00	29.786 
20:10	79.0	79.0	81.3	69	67.9	0	2	270	0.00	29.786 
20:15	78.8	78.8	81.1	69	67.7	0	2	270	0.00	29.789 
20:20	78.8	78.8	81.1	70	68.2	0	3	0	0.00	29.789 
20:25	78.6	78.6	80.8	70	68.0	0	3	0	0.00	29.789 
20:30	78.6	78.6	80.9	71	68.4	0	1	0	0.00	29.784 
20:35	78.6	78.6	80.9	71	68.4	0	1	0	0.00	29.784 
20:40	78.5	78.5	80.8	71	68.3	0	1	0	0.00	29.784 
20:45	78.3	78.3	80.5	72	68.5	0	1	0	0.00	29.783 
20:50	78.1	78.1	80.2	72	68.3	0	0	---	0.00	29.783 
20:55	78.1	78.1	80.3	73	68.7	0	1	0	0.00	29.783 
21:00	77.9	77.9	80.0	74	68.9	0	1	0	0.00	29.787 
21:05	77.7	77.7	79.7	74	68.7	0	0	---	0.00	29.787 
21:10	77.6	77.6	79.6	75	69.0	0	0	---	0.00	29.787 
21:15	77.4	77.4	79.3	76	69.2	0	0	---	0.00	29.786 
21:20	77.4	77.4	79.3	76	69.2	0	0	---	0.00	29.786 
21:25	77.2	77.2	79.0	77	69.4	0	0	---	0.00	29.786 
21:30	77.0	77.0	78.7	77	69.2	0	0	---	0.00	29.789 
21:35	77.0	77.0	78.6	78	69.6	0	0	---	0.00	29.789 
21:40	77.0	77.0	78.6	78	69.6	0	0	---	0.00	29.789 
21:45	76.8	76.8	78.3	78	69.4	0	0	---	0.00	29.795 
21:50	76.8	76.8	78.3	79	69.8	0	0	---	0.00	29.795 
21:55	76.7	76.7	78.1	79	69.7	0	0	---	0.00	29.795 
22:00	76.7	76.7	78.1	80	70.0	0	0	---	0.00	29.802 
22:05	76.7	76.7	78.1	80	70.0	0	0	---	0.00	29.802 
22:10	76.7	76.7	78.1	80	70.0	0	0	---	0.00	29.802 
22:15	76.5	76.5	77.7	81	70.2	0	0	---	0.00	29.797 
22:20	76.5	76.5	77.7	81	70.2	0	0	---	0.00	29.797 
22:25	76.5	76.5	77.7	81	70.2	0	1	0	0.00	29.797 
22:30	76.7	76.7	78.0	81	70.4	0	0	---	0.00	29.786 
22:35	76.5	76.5	77.7	81	70.2	0	0	---	0.00	29.786 
22:40	76.5	76.5	77.7	81	70.2	0	1	0	0.00	29.786 
22:45	76.5	76.5	77.7	82	70.6	0	0	---	0.00	29.771 
22:50	76.5	76.5	77.7	82	70.6	0	0	---	0.00	29.771 
22:55	76.3	76.3	77.3	82	70.4	0	1	0	0.00	29.771 
23:00	76.3	76.3	77.2	83	70.7	0	1	0	0.00	29.747 
23:05	76.1	76.1	76.9	83	70.5	0	1	0	0.00	29.747 
23:10	76.0	76.0	76.7	84	70.8	0	0	---	0.00	29.747 
23:15	75.8	75.8	76.3	84	70.6	0	0	---	0.00	29.750 
23:20	75.8	75.8	76.3	84	70.6	0	0	---	0.00	29.750 
23:25	75.8	75.8	76.3	84	70.6	0	0	---	0.00	29.750 
23:30	75.8	75.8	76.3	84	70.6	0	0	---	0.00	29.755 
23:35	75.8	75.8	76.2	85	71.0	0	0	---	0.00	29.755 
23:40	75.8	75.8	76.2	85	71.0	0	1	0	0.00	29.755 
23:45	76.0	76.0	76.6	85	71.2	0	1	0	0.00	29.740 
23:50	76.0	76.0	76.6	85	71.2	0	1	0	0.00	29.740 
23:55	76.0	76.0	76.6	85	71.2	0	3	0	0.00	29.740 

CoCoRaHS
IN-AL-39
A2 Web Hosting
Creative Commons License
GoDaddy
search engine by freefind advanced

loaded 2018-11-21 01:26:14 • last modified 2010-11-18 10:43:29
Privacy PolicyDisclaimer
• wx.awcolley.com is powered by PmWiki v.2002016 •
• all content (unless otherwise noted) © 2018 A W Colley